createdAt,value
2022-07-28T00:01:11.445Z,0.30
2022-07-28T00:03:40.654Z,0.37
2022-07-28T00:06:08.496Z,0.43
2022-07-28T00:08:36.294Z,0.37
2022-07-28T00:11:04.155Z,0.40
2022-07-28T00:13:32.017Z,0.50
2022-07-28T00:15:59.904Z,0.50
2022-07-28T00:18:27.733Z,0.30
2022-07-28T00:20:58.110Z,0.23
2022-07-28T00:23:38.704Z,0.30
2022-07-28T00:26:08.673Z,0.37
2022-07-28T00:28:36.724Z,0.40
2022-07-28T00:31:04.997Z,0.40
2022-07-28T00:33:35.618Z,0.40
2022-07-28T00:36:05.581Z,0.67
2022-07-28T00:38:34.369Z,0.30
2022-07-28T00:41:12.536Z,0.47
2022-07-28T00:43:41.089Z,0.43
2022-07-28T00:46:09.957Z,0.30
2022-07-28T00:48:39.264Z,0.20
2022-07-28T00:51:10.419Z,0.63
2022-07-28T00:53:38.652Z,0.50
2022-07-28T00:56:07.556Z,0.30
2022-07-28T00:58:36.237Z,0.50
2022-07-28T01:01:04.803Z,0.70
2022-07-28T01:03:33.740Z,0.40
2022-07-28T01:06:11.334Z,0.40
2022-07-28T01:08:53.656Z,0.40
2022-07-28T01:11:30.962Z,0.30
2022-07-28T01:14:07.564Z,0.50
2022-07-28T01:16:41.557Z,0.50
2022-07-28T01:19:18.849Z,0.60
2022-07-28T01:21:49.805Z,0.50
2022-07-28T01:24:25.633Z,0.73
2022-07-28T01:26:59.326Z,0.40
2022-07-28T01:29:42.768Z,0.63
2022-07-28T01:32:17.435Z,0.40
2022-07-28T01:34:51.567Z,0.60
2022-07-28T01:37:21.569Z,0.70
2022-07-28T01:39:53.422Z,0.67
2022-07-28T01:42:24.005Z,0.57
2022-07-28T01:44:55.085Z,0.50
2022-07-28T01:47:26.324Z,0.70
2022-07-28T01:49:56.583Z,0.50
2022-07-28T01:52:26.118Z,0.43
2022-07-28T01:54:55.934Z,0.50
2022-07-28T01:57:26.346Z,0.70
2022-07-28T01:59:56.059Z,0.53
2022-07-28T02:02:28.096Z,0.40
2022-07-28T02:04:58.498Z,0.40
2022-07-28T02:07:28.588Z,0.43
2022-07-28T02:09:58.739Z,0.50
2022-07-28T02:12:28.860Z,0.50
2022-07-28T02:14:59.477Z,0.53
2022-07-28T02:17:34.009Z,0.50
2022-07-28T02:20:02.652Z,0.70
2022-07-28T02:22:31.891Z,0.80
2022-07-28T02:24:59.834Z,0.60
2022-07-28T02:27:35.445Z,0.70
2022-07-28T02:30:08.388Z,0.60
2022-07-28T02:32:42.187Z,0.70
2022-07-28T02:35:21.627Z,0.47
2022-07-28T02:37:55.412Z,0.53
2022-07-28T02:40:23.633Z,0.53
2022-07-28T02:42:54.089Z,0.57
2022-07-28T02:45:26.468Z,0.50
2022-07-28T02:47:59.706Z,0.67
2022-07-28T02:50:29.595Z,0.50
2022-07-28T02:53:02.036Z,0.47
2022-07-28T02:55:44.449Z,0.50
2022-07-28T02:58:13.269Z,0.63
2022-07-28T03:00:41.765Z,0.77
2022-07-28T03:03:11.771Z,0.97
2022-07-28T03:05:41.469Z,0.80
2022-07-28T03:08:09.646Z,0.70
2022-07-28T03:10:37.930Z,0.50
2022-07-28T03:13:07.867Z,0.40
2022-07-28T03:15:37.659Z,0.40
2022-07-28T03:18:06.769Z,0.60
2022-07-28T03:20:36.425Z,0.50
2022-07-28T03:23:04.363Z,0.40
2022-07-28T03:25:40.472Z,0.33
2022-07-28T03:28:14.089Z,0.50
2022-07-28T03:30:44.132Z,0.50
2022-07-28T03:33:12.836Z,0.53
2022-07-28T03:35:48.180Z,0.50
2022-07-28T03:38:21.651Z,0.60
2022-07-28T03:40:50.474Z,0.70
2022-07-28T03:43:20.954Z,0.53
2022-07-28T03:45:49.157Z,0.80
2022-07-28T03:48:17.444Z,0.60
2022-07-28T03:50:46.601Z,0.50
2022-07-28T03:53:20.881Z,0.53
2022-07-28T03:55:51.228Z,0.70
2022-07-28T03:58:19.368Z,0.70
2022-07-28T04:00:48.028Z,0.70
2022-07-28T04:03:36.408Z,0.70
2022-07-28T04:06:05.769Z,0.57
2022-07-28T04:08:33.608Z,0.50
2022-07-28T04:11:01.449Z,0.50
2022-07-28T04:13:29.259Z,0.87
2022-07-28T04:15:57.344Z,0.50
2022-07-28T04:18:25.223Z,0.47
2022-07-28T04:20:53.045Z,0.30
2022-07-28T04:23:22.498Z,0.60
2022-07-28T04:25:50.311Z,0.70
2022-07-28T04:28:18.132Z,0.50
2022-07-28T04:30:46.208Z,0.80
2022-07-28T04:33:14.409Z,0.83
2022-07-28T04:35:42.380Z,0.60
2022-07-28T04:38:12.168Z,0.70
2022-07-28T04:40:42.203Z,1.00
2022-07-28T04:43:10.337Z,0.70
2022-07-28T04:45:38.765Z,0.73
2022-07-28T04:48:14.303Z,0.70
2022-07-28T04:50:46.442Z,0.60
2022-07-28T04:53:14.273Z,0.40
2022-07-28T04:55:43.480Z,0.40
2022-07-28T04:58:12.555Z,0.57
2022-07-28T05:00:40.591Z,0.50
2022-07-28T05:03:08.407Z,0.53
2022-07-28T05:05:36.244Z,0.60
2022-07-28T05:08:04.178Z,0.30
2022-07-28T05:10:32.096Z,0.50
2022-07-28T05:13:05.913Z,0.67
2022-07-28T05:15:34.039Z,0.50
2022-07-28T05:18:02.192Z,0.50
2022-07-28T05:20:30.119Z,0.40
2022-07-28T05:22:58.451Z,0.20
2022-07-28T05:25:26.978Z,0.33
2022-07-28T05:27:55.809Z,0.40
2022-07-28T05:30:25.319Z,0.50
2022-07-28T05:32:59.206Z,0.33
2022-07-28T05:35:27.303Z,0.53
2022-07-28T05:37:55.096Z,0.60
2022-07-28T05:40:22.950Z,0.53
2022-07-28T05:42:50.819Z,0.50
2022-07-28T05:45:18.659Z,0.40
2022-07-28T05:47:49.587Z,0.50
2022-07-28T05:50:18.813Z,0.40
2022-07-28T05:52:47.012Z,0.47
2022-07-28T05:55:15.363Z,0.53
2022-07-28T05:57:43.193Z,0.50
2022-07-28T06:00:13.531Z,0.40
2022-07-28T06:02:41.549Z,0.40
2022-07-28T06:05:11.392Z,0.30
2022-07-28T06:07:42.756Z,0.40
2022-07-28T06:10:13.604Z,0.40
2022-07-28T06:12:42.233Z,0.47
2022-07-28T06:15:14.262Z,0.50
2022-07-28T06:17:42.419Z,0.40
2022-07-28T06:20:12.924Z,0.40
2022-07-28T06:22:45.012Z,0.47
2022-07-28T06:25:15.129Z,0.50
2022-07-28T06:27:43.364Z,0.63
2022-07-28T06:30:11.954Z,0.60
2022-07-28T06:32:39.905Z,0.53
2022-07-28T06:35:09.099Z,0.57
2022-07-28T06:37:38.263Z,0.60
2022-07-28T06:40:07.472Z,0.60
2022-07-28T06:42:35.332Z,0.60
2022-07-28T06:45:03.243Z,0.60
2022-07-28T06:47:31.049Z,0.53
2022-07-28T06:49:59.129Z,0.40
2022-07-28T06:52:27.316Z,0.50
2022-07-28T06:54:58.303Z,0.60
2022-07-28T06:57:33.445Z,0.50
2022-07-28T07:00:04.001Z,0.40
2022-07-28T07:02:31.852Z,0.60
2022-07-28T07:04:59.884Z,0.40
2022-07-28T07:07:27.714Z,0.50
2022-07-28T07:09:56.903Z,0.60
2022-07-28T07:12:24.821Z,0.60
2022-07-28T07:14:52.808Z,0.53
2022-07-28T07:17:20.762Z,0.43
2022-07-28T07:19:48.580Z,0.50
2022-07-28T07:22:17.068Z,0.50
2022-07-28T07:24:45.076Z,0.40
2022-07-28T07:27:15.077Z,0.37
2022-07-28T07:29:42.906Z,0.20
2022-07-28T07:32:11.188Z,0.40
2022-07-28T07:34:40.463Z,0.50
2022-07-28T07:37:13.619Z,0.40
2022-07-28T07:39:42.402Z,0.50
2022-07-28T07:42:10.533Z,0.60
2022-07-28T07:44:39.705Z,0.60
2022-07-28T07:47:09.856Z,0.50
2022-07-28T07:49:45.639Z,0.43
2022-07-28T07:52:14.318Z,0.43
2022-07-28T07:54:42.416Z,0.70
2022-07-28T07:57:10.339Z,0.63
2022-07-28T07:59:39.553Z,1.10
2022-07-28T08:02:07.845Z,1.20
2022-07-28T08:04:37.579Z,1.00
2022-07-28T08:07:06.713Z,0.90
2022-07-28T08:09:34.855Z,0.90
2022-07-28T08:12:03.134Z,0.73
2022-07-28T08:14:30.984Z,0.57
2022-07-28T08:17:00.361Z,0.70
2022-07-28T08:19:28.223Z,0.50
2022-07-28T08:21:56.454Z,0.70
2022-07-28T08:24:32.292Z,0.60
2022-07-28T08:27:01.009Z,0.47
2022-07-28T08:29:28.846Z,0.70
2022-07-28T08:31:56.711Z,0.73
2022-07-28T08:34:32.851Z,0.57
2022-07-28T08:37:02.866Z,0.50
2022-07-28T08:39:31.294Z,0.50
2022-07-28T08:42:03.346Z,0.43
2022-07-28T08:44:39.026Z,0.40
2022-07-28T08:47:11.055Z,0.60
2022-07-28T08:49:43.395Z,0.60
2022-07-28T08:52:13.189Z,0.60
2022-07-28T08:54:44.821Z,0.90
2022-07-28T08:57:23.521Z,0.43
2022-07-28T08:59:53.463Z,0.47
2022-07-28T09:02:22.528Z,0.53
2022-07-28T09:04:52.394Z,0.70
2022-07-28T09:07:20.856Z,0.67
2022-07-28T09:09:49.769Z,0.67
2022-07-28T09:12:18.079Z,0.87
2022-07-28T09:14:47.047Z,1.00
2022-07-28T09:17:15.065Z,1.03
2022-07-28T09:19:43.112Z,1.00
2022-07-28T09:22:13.366Z,0.93
2022-07-28T09:24:44.578Z,0.87
2022-07-28T09:27:13.766Z,1.00
2022-07-28T09:29:45.525Z,0.80
2022-07-28T09:32:15.228Z,0.70
2022-07-28T09:34:44.173Z,0.70
2022-07-28T09:37:24.770Z,0.73
2022-07-28T09:39:58.180Z,0.70
2022-07-28T09:42:26.914Z,1.20
2022-07-28T09:45:23.016Z,0.90
2022-07-28T09:48:10.054Z,0.90
2022-07-28T09:50:38.725Z,0.90
2022-07-28T09:53:27.282Z,0.70
2022-07-28T09:55:57.805Z,0.57
2022-07-28T09:58:26.780Z,0.80
2022-07-28T10:01:16.244Z,0.93
2022-07-28T10:03:49.734Z,0.53
2022-07-28T10:06:24.671Z,0.93
2022-07-28T10:08:54.926Z,0.70
2022-07-28T10:11:26.836Z,0.80
2022-07-28T10:13:57.014Z,0.70
2022-07-28T10:16:26.639Z,0.87
2022-07-28T10:18:54.966Z,0.87
2022-07-28T10:21:25.337Z,0.83
2022-07-28T10:23:56.759Z,1.00
2022-07-28T10:26:29.157Z,0.83
2022-07-28T10:28:57.713Z,0.90
2022-07-28T10:31:33.915Z,0.73
2022-07-28T10:34:03.611Z,0.67
2022-07-28T10:36:33.539Z,0.60
2022-07-28T10:39:13.096Z,0.80
2022-07-28T10:41:42.532Z,0.70
2022-07-28T10:44:14.502Z,0.73
2022-07-28T10:46:44.789Z,0.60
2022-07-28T10:49:14.926Z,0.67
2022-07-28T10:52:02.509Z,0.63
2022-07-28T10:54:37.592Z,0.65
2022-07-28T10:57:12.827Z,0.70
2022-07-28T11:00:12.899Z,0.80
2022-07-28T11:02:50.372Z,0.80
2022-07-28T11:05:32.557Z,0.52
2022-07-28T11:08:02.187Z,0.73
2022-07-28T11:10:43.271Z,0.75
2022-07-28T11:13:24.723Z,0.80
2022-07-28T11:15:58.543Z,0.65
2022-07-28T11:18:29.096Z,0.63
2022-07-28T11:21:16.571Z,0.68
2022-07-28T11:23:48.241Z,0.55
2022-07-28T11:26:38.633Z,0.70
2022-07-28T11:29:16.387Z,0.70
2022-07-28T11:32:04.499Z,0.77
2022-07-28T11:35:08.677Z,0.95
2022-07-28T11:38:08.998Z,1.10
2022-07-28T11:40:39.017Z,1.02
2022-07-28T11:43:36.525Z,1.23
2022-07-28T11:46:37.554Z,0.80
2022-07-28T11:49:24.941Z,0.68
2022-07-28T11:52:20.800Z,0.70
2022-07-28T11:54:52.521Z,0.70
2022-07-28T11:57:21.407Z,0.77
2022-07-28T11:59:53.406Z,0.70
2022-07-28T12:02:27.544Z,0.45
2022-07-28T12:04:58.022Z,0.73
2022-07-28T12:07:48.261Z,0.50
2022-07-28T12:10:54.403Z,0.95
2022-07-28T12:13:28.336Z,0.85
2022-07-28T12:15:58.014Z,0.70
2022-07-28T12:18:26.112Z,0.50
2022-07-28T12:20:54.963Z,0.60
2022-07-28T12:23:38.642Z,0.85
2022-07-28T12:26:12.141Z,1.00
2022-07-28T12:28:40.225Z,1.00
2022-07-28T12:31:13.592Z,0.70
2022-07-28T12:33:41.634Z,0.70
2022-07-28T12:36:09.896Z,1.00
2022-07-28T12:38:37.824Z,0.70
2022-07-28T12:41:15.147Z,0.57
2022-07-28T12:43:50.703Z,0.90
2022-07-28T12:46:23.052Z,0.80
2022-07-28T12:48:55.771Z,1.10
2022-07-28T12:51:37.909Z,1.00
2022-07-28T12:54:07.974Z,0.80
2022-07-28T12:56:45.831Z,0.75
2022-07-28T12:59:14.415Z,0.90
2022-07-28T13:01:48.153Z,1.00
2022-07-28T13:04:17.273Z,0.95
2022-07-28T13:06:56.385Z,0.70
2022-07-28T13:09:32.832Z,0.73
2022-07-28T13:12:03.448Z,0.80
2022-07-28T13:14:40.822Z,0.88
2022-07-28T13:17:10.048Z,0.70
2022-07-28T13:19:37.931Z,1.00
2022-07-28T13:22:09.247Z,0.70
2022-07-28T13:24:37.372Z,0.73
2022-07-28T13:27:06.915Z,0.68
2022-07-28T13:29:35.827Z,0.60
2022-07-28T13:32:03.875Z,0.60
2022-07-28T13:34:33.175Z,0.52
2022-07-28T13:37:01.094Z,0.60
2022-07-28T13:39:28.942Z,0.40
2022-07-28T13:41:59.080Z,0.52
2022-07-28T13:44:27.722Z,0.45
2022-07-28T13:46:56.709Z,0.52
2022-07-28T13:49:28.294Z,0.90
2022-07-28T13:51:59.660Z,1.42
2022-07-28T13:54:28.572Z,0.90
2022-07-28T13:56:56.502Z,1.00
2022-07-28T13:59:26.434Z,0.80
2022-07-28T14:01:55.345Z,0.60
2022-07-28T14:04:23.640Z,0.63
2022-07-28T14:06:51.877Z,0.57
2022-07-28T14:09:21.610Z,0.40
2022-07-28T14:11:53.517Z,0.52
2022-07-28T14:14:24.891Z,0.57
2022-07-28T14:16:55.002Z,0.65
2022-07-28T14:19:39.115Z,0.60
2022-07-28T14:22:12.765Z,0.32
2022-07-28T14:24:43.273Z,0.40
2022-07-28T14:27:11.397Z,0.70
2022-07-28T14:29:39.612Z,0.98
2022-07-28T14:32:07.930Z,0.45
2022-07-28T14:34:35.874Z,0.60
2022-07-28T14:37:08.798Z,0.38
2022-07-28T14:39:37.730Z,0.68
2022-07-28T14:42:07.340Z,0.93
2022-07-28T14:44:35.906Z,0.90
2022-07-28T14:47:04.025Z,0.65
2022-07-28T14:49:31.947Z,0.60
2022-07-28T14:52:00.267Z,0.52
2022-07-28T14:54:28.809Z,0.60
2022-07-28T14:56:57.165Z,0.30
2022-07-28T14:59:26.570Z,0.55
2022-07-28T15:01:54.536Z,0.38
2022-07-28T15:04:22.569Z,0.70
2022-07-28T15:06:50.390Z,0.40
2022-07-28T15:09:18.274Z,0.55
2022-07-28T15:11:47.500Z,0.57
2022-07-28T15:14:16.425Z,0.55
2022-07-28T15:16:50.914Z,0.80
2022-07-28T15:19:18.767Z,0.80
2022-07-28T15:21:47.709Z,0.63
2022-07-28T15:24:16.970Z,0.80
2022-07-28T15:26:45.066Z,0.57
2022-07-28T15:29:13.035Z,0.68
2022-07-28T15:31:43.446Z,0.60
2022-07-28T15:34:15.092Z,0.57
2022-07-28T15:36:43.382Z,0.40
2022-07-28T15:39:14.228Z,0.50
2022-07-28T15:41:43.001Z,0.50
2022-07-28T15:44:12.117Z,0.45
2022-07-28T15:46:40.555Z,0.60
2022-07-28T15:49:09.785Z,0.55
2022-07-28T15:51:39.988Z,0.50
2022-07-28T15:54:08.158Z,0.50
2022-07-28T15:56:36.964Z,0.40
2022-07-28T15:59:07.674Z,0.70
2022-07-28T16:01:36.111Z,0.90
2022-07-28T16:04:04.086Z,0.50
2022-07-28T16:06:46.341Z,0.80
2022-07-28T16:09:15.934Z,0.80
2022-07-28T16:11:44.234Z,0.30
2022-07-28T16:14:12.360Z,0.80
2022-07-28T16:16:40.583Z,0.90
2022-07-28T16:19:20.160Z,0.65
2022-07-28T16:21:57.502Z,0.55
2022-07-28T16:24:26.831Z,0.50
2022-07-28T16:26:54.688Z,0.55
2022-07-28T16:29:22.583Z,0.40
2022-07-28T16:31:50.537Z,0.47
2022-07-28T16:34:18.663Z,0.38
2022-07-28T16:36:46.618Z,0.40
2022-07-28T16:39:14.597Z,0.60
2022-07-28T16:41:47.549Z,0.40
2022-07-28T16:44:16.617Z,0.50
2022-07-28T16:46:44.923Z,0.60
2022-07-28T16:49:12.985Z,0.50
2022-07-28T16:51:40.872Z,0.60
2022-07-28T16:54:08.726Z,0.50
2022-07-28T16:56:36.606Z,0.30
2022-07-28T16:59:05.946Z,0.47
2022-07-28T17:01:33.810Z,0.43
2022-07-28T17:04:03.152Z,0.90
2022-07-28T17:06:31.128Z,1.10
2022-07-28T17:08:59.035Z,0.90
2022-07-28T17:11:27.369Z,0.90
2022-07-28T17:13:55.355Z,0.63
2022-07-28T17:16:24.687Z,0.60
2022-07-28T17:18:52.700Z,0.70
2022-07-28T17:21:21.034Z,1.00
2022-07-28T17:23:49.098Z,0.80
2022-07-28T17:27:12.979Z,0.60
2022-07-28T17:29:05.566Z,0.38
2022-07-28T17:31:34.937Z,0.60
2022-07-28T17:34:02.908Z,0.50
2022-07-28T17:36:34.077Z,0.50
2022-07-28T17:39:02.495Z,0.52
2022-07-28T17:41:31.298Z,0.45
2022-07-28T17:43:59.144Z,0.60
2022-07-28T17:46:27.060Z,0.50
2022-07-28T17:48:56.535Z,0.60
2022-07-28T17:51:24.482Z,0.40
2022-07-28T17:53:52.451Z,0.45
2022-07-28T17:56:22.698Z,0.70
2022-07-28T17:58:50.752Z,0.60
2022-07-28T18:01:18.904Z,0.52
2022-07-28T18:03:56.894Z,0.40
2022-07-28T18:06:29.479Z,0.38
2022-07-28T18:08:57.731Z,0.47
2022-07-28T18:11:33.115Z,0.43
2022-07-28T18:14:03.656Z,0.38
2022-07-28T18:16:34.180Z,0.40
2022-07-28T18:19:02.796Z,0.30
2022-07-28T18:21:32.197Z,0.30
2022-07-28T18:24:03.001Z,0.40
2022-07-28T18:26:30.816Z,0.40
2022-07-28T18:28:58.891Z,0.45
2022-07-28T18:31:27.987Z,0.50
2022-07-28T18:33:55.921Z,0.43
2022-07-28T18:36:23.732Z,0.30
2022-07-28T18:38:52.970Z,0.40
2022-07-28T18:41:20.867Z,0.50
2022-07-28T18:43:48.668Z,0.60
2022-07-28T18:46:16.824Z,0.47
2022-07-28T18:48:44.687Z,0.30
2022-07-28T18:51:16.821Z,0.38
2022-07-28T18:53:44.647Z,0.45
2022-07-28T18:56:13.996Z,0.30
2022-07-28T18:58:43.330Z,0.40
2022-07-28T19:01:13.352Z,0.40
2022-07-28T19:03:42.022Z,0.47
2022-07-28T19:06:11.330Z,0.43
2022-07-28T19:08:39.327Z,0.50
2022-07-28T19:11:07.175Z,0.40
2022-07-28T19:13:36.343Z,0.43
2022-07-28T19:16:04.256Z,0.40
2022-07-28T19:18:32.179Z,0.40
2022-07-28T19:21:00.084Z,0.50
2022-07-28T19:23:30.175Z,0.60
2022-07-28T19:25:58.166Z,0.50
2022-07-28T19:28:25.983Z,0.50
2022-07-28T19:30:55.839Z,0.50
2022-07-28T19:33:24.493Z,0.50
2022-07-28T19:35:52.391Z,0.40
2022-07-28T19:38:20.206Z,0.50
2022-07-28T19:40:48.085Z,0.70
2022-07-28T19:43:15.919Z,0.43
2022-07-28T19:45:43.939Z,0.70
2022-07-28T19:48:13.460Z,0.40
2022-07-28T19:50:49.958Z,0.50
2022-07-28T19:53:19.062Z,0.40
2022-07-28T19:55:50.669Z,0.30
2022-07-28T19:58:19.478Z,0.50
2022-07-28T20:00:48.488Z,0.30
2022-07-28T20:04:01.719Z,0.47
2022-07-28T20:06:06.012Z,0.50
2022-07-28T20:08:34.023Z,0.50
2022-07-28T20:11:01.861Z,0.40
2022-07-28T20:13:29.815Z,0.60
2022-07-28T20:15:57.649Z,0.30
2022-07-28T20:18:26.908Z,0.40
2022-07-28T20:20:54.775Z,0.57
2022-07-28T20:23:22.593Z,0.60
2022-07-28T20:25:50.429Z,0.50
2022-07-28T20:28:18.546Z,0.50
2022-07-28T20:30:46.432Z,0.60
2022-07-28T20:33:14.328Z,0.70
2022-07-28T20:35:43.546Z,0.40
2022-07-28T20:38:11.351Z,0.40
2022-07-28T20:40:39.189Z,0.50
2022-07-28T20:43:07.278Z,0.70
2022-07-28T20:45:35.263Z,0.30
2022-07-28T20:48:03.136Z,0.50
2022-07-28T20:50:31.021Z,0.63
2022-07-28T20:53:00.818Z,0.50
2022-07-28T20:55:38.608Z,0.47
2022-07-28T20:58:06.425Z,0.60
2022-07-28T21:00:34.378Z,0.57
2022-07-28T21:03:02.278Z,0.60
2022-07-28T21:05:35.511Z,0.50
2022-07-28T21:08:09.133Z,0.50
2022-07-28T21:10:43.731Z,0.60
2022-07-28T21:13:11.610Z,0.60
2022-07-28T21:15:39.479Z,0.50
2022-07-28T21:18:07.451Z,0.40
2022-07-28T21:20:35.528Z,0.50
2022-07-28T21:23:05.311Z,0.40
2022-07-28T21:25:33.333Z,0.47
2022-07-28T21:28:18.592Z,0.23
2022-07-28T21:30:46.488Z,0.40
2022-07-28T21:33:22.399Z,0.60
2022-07-28T21:35:51.101Z,0.53
2022-07-28T21:38:20.279Z,0.60
2022-07-28T21:40:48.209Z,0.40
2022-07-28T21:43:16.060Z,0.60
2022-07-28T21:45:45.628Z,0.30
2022-07-28T21:48:13.694Z,0.50
2022-07-28T21:50:41.543Z,0.40
2022-07-28T21:53:14.019Z,0.43
2022-07-28T21:55:46.214Z,0.40
2022-07-28T21:58:14.614Z,0.30
2022-07-28T22:00:43.226Z,0.30
2022-07-28T22:03:11.538Z,0.30
2022-07-28T22:05:39.507Z,0.40
2022-07-28T22:08:08.693Z,0.30
2022-07-28T22:10:36.743Z,0.40
2022-07-28T22:13:05.911Z,0.70
2022-07-28T22:15:33.789Z,0.50
2022-07-28T22:18:01.606Z,0.43
2022-07-28T22:20:30.234Z,0.30
2022-07-28T22:22:58.185Z,0.40
2022-07-28T22:25:26.007Z,0.60
2022-07-28T22:27:53.988Z,0.50
2022-07-28T22:30:23.216Z,0.40
2022-07-28T22:32:51.063Z,0.50
2022-07-28T22:35:19.084Z,0.30
2022-07-28T22:37:47.198Z,0.37
2022-07-28T22:40:16.147Z,0.43
2022-07-28T22:42:45.002Z,0.40
2022-07-28T22:45:13.453Z,0.40
2022-07-28T22:47:43.096Z,0.40
2022-07-28T22:50:11.562Z,0.20
2022-07-28T22:52:39.459Z,0.30
2022-07-28T22:55:08.489Z,0.20
2022-07-28T22:57:36.354Z,0.40
2022-07-28T23:00:05.911Z,0.43
2022-07-28T23:02:35.607Z,0.30
2022-07-28T23:05:06.802Z,0.40
2022-07-28T23:07:51.106Z,0.30
2022-07-28T23:10:21.435Z,0.40
2022-07-28T23:12:49.299Z,0.37
2022-07-28T23:15:17.151Z,0.53
2022-07-28T23:17:44.985Z,0.30
2022-07-28T23:20:14.320Z,0.30
2022-07-28T23:22:42.207Z,0.30
2022-07-28T23:25:10.630Z,0.23
2022-07-28T23:27:38.539Z,0.30
2022-07-28T23:30:07.540Z,0.50
2022-07-28T23:32:35.381Z,0.30
2022-07-28T23:35:03.234Z,0.20
2022-07-28T23:37:35.489Z,0.50
2022-07-28T23:40:03.744Z,0.40
2022-07-28T23:42:31.570Z,0.40
2022-07-28T23:44:59.412Z,0.30
2022-07-28T23:47:27.272Z,0.50
2022-07-28T23:49:55.424Z,0.50
2022-07-28T23:52:23.384Z,0.40
2022-07-28T23:54:52.609Z,0.53
2022-07-28T23:57:20.406Z,0.30
2022-07-28T23:59:48.397Z,0.40
